Atkinson, New Hampshire
Current Conditions -  °F | °C
As of 3:54 AM on Saturday 01 Nov 2014 (Local Time) from KLWM Reporting Station
Broken Clouds Broken Clouds  
Wind Chill: 33°   Ceiling: 9000
Heat Index: 40°   Visibility: 10mi
Dew Point: 32°   Wind: 13mph
Humidity: 73%   Direction: 20°NNE
Pressure: 29.95"   Gusts: NA
Location:  42.84°N, 71.15°W
Report Text: KLWM 010754Z AUTO 02011KT 10SM BKN090 04/00 A2995 RMK AO2 SLP143 T00440000
Loading
Personal Weather Stations






























Interactive Weather Map
Tropical Storm Tracking
New forecast layout! Learn more

10-Day Weather Forecast

Advertisements
Track Severe Weather on mobile